Time;durP1;ratioP1;P1;durP2;ratioP2;P2;SDS_P1;SDS_P2;PMS_P1;PMS_P2;Temp;Humidity;BMP_temperature;BMP_pressure;BME280_temperature;BME280_humidity;BME280_pressure;Samples;Min_cycle;Max_cycle;Signal;HPM_P1;HPM_P2
2022/09/22 00:00:09;;;;;;;3.60;2.85;;;;;;;10.56;50.32;94038.53;5044928;28;20028;-79
2022/09/22 00:02:35;;;;;;;3.33;2.55;;;;;;;10.51;50.11;94017.41;5065214;28;20489;-77
2022/09/22 00:05:00;;;;;;;3.40;2.90;;;;;;;10.65;49.85;94039.34;5036703;28;20036;-78
2022/09/22 00:07:25;;;;;;;3.45;2.53;;;;;;;10.80;49.68;94062.88;5038399;28;20364;-79
2022/09/22 00:09:51;;;;;;;3.53;2.50;;;;;;;10.84;49.75;94061.16;5039464;28;20124;-78
2022/09/22 00:12:16;;;;;;;2.40;2.10;;;;;;;10.65;49.75;94058.75;5040674;28;20047;-78
2022/09/22 00:14:41;;;;;;;3.67;2.80;;;;;;;10.52;50.02;94045.53;5039923;28;20070;-78
2022/09/22 00:17:07;;;;;;;2.78;2.30;;;;;;;10.55;49.92;94035.09;5040025;28;20021;-78
2022/09/22 00:19:35;;;;;;;2.72;2.50;;;;;;;10.72;49.67;94053.75;5038056;28;20033;-77
2022/09/22 00:22:02;;;;;;;2.58;2.38;;;;;;;10.75;49.26;94049.72;5036672;28;20060;-78
2022/09/22 00:24:30;;;;;;;2.58;2.22;;;;;;;10.59;49.15;94020.09;5036911;28;20041;-78
2022/09/22 00:26:56;;;;;;;3.10;2.80;;;;;;;10.72;49.02;94034.34;5035346;28;20021;-78
2022/09/22 00:29:26;;;;;;;2.85;1.70;;;;;;;10.56;49.26;94043.84;5037081;28;20017;-78
2022/09/22 00:31:52;;;;;;;2.95;2.28;;;;;;;10.33;49.59;94009.31;5034469;28;20106;-78
2022/09/22 00:34:20;;;;;;;2.38;1.95;;;;;;;10.52;49.25;94029.56;5037881;28;20017;-78
2022/09/22 00:36:46;;;;;;;2.20;1.83;;;;;;;10.69;49.26;94049.06;5035595;28;20028;-77
2022/09/22 00:39:13;;;;;;;3.85;2.50;;;;;;;10.70;49.06;94033.91;5038260;28;20413;-79
2022/09/22 00:41:41;;;;;;;3.22;2.40;;;;;;;10.74;48.98;94040.94;5035894;28;20029;-78
2022/09/22 00:44:25;;;;;;;3.15;2.40;;;;;;;10.78;49.03;94054.41;5035340;28;20025;-77
2022/09/22 00:47:20;;;;;;;2.67;2.20;;;;;;;10.68;49.27;94066.09;5043019;28;20025;-78
2022/09/22 00:49:45;;;;;;;2.50;2.28;;;;;;;10.67;49.18;94061.09;5014493;28;20033;-79
2022/09/22 00:52:15;;;;;;;2.10;1.90;;;;;;;10.32;49.53;94036.19;5036975;28;20029;-78
2022/09/22 00:54:41;;;;;;;1.65;1.55;;;;;;;10.56;49.26;94054.50;5051073;28;20063;-78
2022/09/22 00:57:13;;;;;;;2.55;2.03;;;;;;;10.42;49.42;94051.91;5034288;28;20025;-80
2022/09/22 00:59:40;;;;;;;2.50;1.80;;;;;;;10.51;49.50;94028.03;5043303;28;20048;-78
2022/09/22 01:02:06;;;;;;;2.10;1.85;;;;;;;10.66;49.59;94048.91;5043783;28;20020;-77
2022/09/22 01:04:32;;;;;;;2.50;2.13;;;;;;;10.58;49.37;94044.31;5036728;28;20100;-78
2022/09/22 01:06:59;;;;;;;2.30;2.05;;;;;;;10.57;49.69;94034.75;5036940;28;20021;-78
2022/09/22 01:09:25;;;;;;;3.28;2.17;;;;;;;10.35;49.84;94029.47;5071664;28;20021;-78
2022/09/22 01:11:51;;;;;;;3.42;2.17;;;;;;;10.31;50.19;94040.75;5038122;28;20551;-78
2022/09/22 01:15:05;;;;;;;2.95;2.75;;;;;;;10.29;50.63;94034.16;5039029;28;20036;-79
2022/09/22 01:17:36;;;;;;;2.58;2.33;;;;;;;10.15;50.60;94028.13;5033939;28;20232;-79
2022/09/22 01:20:26;;;;;;;2.33;2.00;;;;;;;10.28;50.52;94030.69;5069279;28;20083;-79
2022/09/22 01:23:27;;;;;;;2.72;2.40;;;;;;;10.27;50.30;94037.09;5037165;28;20029;-77
2022/09/22 01:26:19;;;;;;;2.80;2.20;;;;;;;10.32;50.61;94034.31;5042694;28;20029;-78
2022/09/22 01:29:06;;;;;;;2.47;2.28;;;;;;;10.38;50.14;94039.53;5007500;28;20051;-78
2022/09/22 01:31:51;;;;;;;3.33;2.33;;;;;;;10.12;50.19;94010.91;5038184;28;20029;-77
2022/09/22 01:34:29;;;;;;;2.60;1.88;;;;;;;10.32;50.44;94031.66;5068244;28;20447;-79
2022/09/22 01:37:17;;;;;;;2.35;2.15;;;;;;;10.46;49.74;94030.81;5038095;28;20025;-78
2022/09/22 01:40:10;;;;;;;3.53;2.40;;;;;;;10.49;49.87;94032.84;5032446;28;20082;-80
2022/09/22 01:42:43;;;;;;;3.67;2.70;;;;;;;10.60;49.64;94031.50;5037642;28;20020;-80
2022/09/22 01:45:36;;;;;;;2.90;2.10;;;;;;;10.53;49.97;94031.94;5036009;28;20032;-79
2022/09/22 01:48:18;;;;;;;3.00;2.47;;;;;;;10.17;50.13;93984.19;5034593;28;20049;-78
2022/09/22 01:50:51;;;;;;;2.65;2.05;;;;;;;10.13;50.17;93995.75;5067541;28;20021;-80
2022/09/22 01:53:21;;;;;;;2.28;2.08;;;;;;;10.24;50.29;94003.16;5064156;28;20049;-80
2022/09/22 01:55:52;;;;;;;3.00;2.25;;;;;;;10.52;49.88;94029.56;5042143;28;20033;-78
2022/09/22 01:58:30;;;;;;;3.17;2.30;;;;;;;10.51;49.51;94012.06;5043477;28;20021;-79
2022/09/22 02:01:01;;;;;;;2.50;2.28;;;;;;;10.32;49.59;93983.81;5050790;28;20029;-79
2022/09/22 02:03:40;;;;;;;3.65;2.42;;;;;;;10.67;49.59;94032.63;5066464;28;20507;-77
2022/09/22 02:06:14;;;;;;;3.08;2.42;;;;;;;10.69;49.66;94030.44;5068931;28;20025;-78
2022/09/22 02:08:50;;;;;;;2.25;2.05;;;;;;;10.50;49.44;94007.84;5041949;28;20052;-79
2022/09/22 02:11:15;;;;;;;2.30;1.98;;;;;;;10.22;49.67;93975.34;5066920;28;20195;-80
2022/09/22 02:13:45;;;;;;;3.42;2.33;;;;;;;10.56;49.59;94031.31;5053609;28;20461;-79
2022/09/22 02:16:14;;;;;;;3.10;2.75;;;;;;;10.41;49.37;94007.81;5035669;28;20051;-79
2022/09/22 02:18:53;;;;;;;2.03;1.83;;;;;;;10.33;49.46;93974.75;5035701;28;20025;-78
2022/09/22 02:21:20;;;;;;;2.78;2.28;;;;;;;10.54;49.61;94011.44;5035330;28;20052;-79
2022/09/22 02:23:47;;;;;;;4.07;3.05;;;;;;;10.57;49.91;94026.78;5039091;28;20029;-79
2022/09/22 02:26:22;;;;;;;3.53;2.70;;;;;;;10.64;49.71;94024.47;5039808;28;20029;-80
2022/09/22 02:28:51;;;;;;;2.38;2.17;;;;;;;10.67;49.94;94027.28;5039439;28;20022;-79
2022/09/22 02:31:18;;;;;;;5.10;3.55;;;;;;;10.46;49.60;93983.75;5040835;28;20039;-78
2022/09/22 02:33:43;;;;;;;2.72;2.20;;;;;;;10.61;49.51;94001.91;5039137;28;20047;-78
2022/09/22 02:36:19;;;;;;;2.80;2.55;;;;;;;10.67;49.41;94019.31;5041275;28;20556;-78
2022/09/22 02:39:07;;;;;;;7.53;2.90;;;;;;;10.59;49.59;94019.28;5039980;28;20036;-77
2022/09/22 02:41:51;;;;;;;2.67;2.45;;;;;;;10.53;49.93;94020.50;5039675;28;20033;-78
2022/09/22 02:44:34;;;;;;;3.47;2.90;;;;;;;10.45;50.48;94034.56;5043681;28;20025;-78
2022/09/22 02:47:08;;;;;;;3.38;2.92;;;;;;;9.75;51.93;94000.69;5052658;28;20512;-77
2022/09/22 02:49:34;;;;;;;4.32;3.42;;;;;;;9.77;52.27;94012.59;5036727;28;20086;-78
2022/09/22 02:52:00;;;;;;;3.78;2.88;;;;;;;9.87;52.35;94016.88;5041110;28;20439;-79
2022/09/22 02:54:25;;;;;;;4.82;3.10;;;;;;;9.57;53.00;94018.38;5039029;28;20021;-78
2022/09/22 02:56:50;;;;;;;3.58;3.17;;;;;;;9.64;53.01;94031.22;5038829;28;20049;-79
2022/09/22 02:59:16;;;;;;;2.95;2.58;;;;;;;9.72;53.01;94033.19;5037159;28;20021;-80
2022/09/22 03:01:41;;;;;;;4.57;3.38;;;;;;;9.75;52.81;94027.25;5039849;28;20078;-78
2022/09/22 03:04:07;;;;;;;4.70;3.60;;;;;;;9.86;52.89;94045.31;5038749;28;20383;-78
2022/09/22 03:06:32;;;;;;;3.80;3.05;;;;;;;9.61;53.09;94016.69;5055818;28;20112;-78
2022/09/22 03:08:58;;;;;;;4.03;3.63;;;;;;;9.70;53.06;94020.19;5038964;28;20485;-78
2022/09/22 03:11:25;;;;;;;5.28;3.25;;;;;;;9.79;52.99;94028.22;5049201;28;20099;-79
2022/09/22 03:13:51;;;;;;;5.82;3.75;;;;;;;9.81;53.12;94045.44;5040094;28;20021;-77
2022/09/22 03:16:16;;;;;;;4.10;3.22;;;;;;;9.72;53.24;94038.50;5039912;28;20031;-79
2022/09/22 03:18:41;;;;;;;3.55;2.95;;;;;;;9.76;53.29;94042.09;5038318;28;20080;-78
2022/09/22 03:21:07;;;;;;;3.10;2.80;;;;;;;9.65;53.14;94011.56;5036760;28;20049;-78
2022/09/22 03:23:32;;;;;;;4.50;3.38;;;;;;;9.60;53.19;94003.72;5038250;28;20400;-76
2022/09/22 03:25:57;;;;;;;4.47;3.85;;;;;;;9.80;53.10;94019.94;5039684;28;20329;-77
2022/09/22 03:28:23;;;;;;;3.70;3.05;;;;;;;9.74;52.88;94025.69;5039513;28;20047;-78
2022/09/22 03:30:48;;;;;;;3.47;2.78;;;;;;;9.93;52.55;94028.94;5038134;28;20922;-77
2022/09/22 03:33:14;;;;;;;3.38;3.08;;;;;;;9.97;52.31;94023.81;5052788;28;20028;-78
2022/09/22 03:35:40;;;;;;;4.25;3.00;;;;;;;10.06;52.03;94028.09;5037189;28;20041;-78
2022/09/22 03:38:05;;;;;;;6.00;3.75;;;;;;;10.30;51.86;94044.47;5037873;28;20043;-77
2022/09/22 03:40:30;;;;;;;3.20;2.90;;;;;;;9.70;51.55;93977.69;5036348;28;20053;-77
2022/09/22 03:42:56;;;;;;;4.25;3.85;;;;;;;9.78;51.71;94022.13;5038401;28;20589;-77
2022/09/22 03:45:21;;;;;;;3.30;2.72;;;;;;;9.81;52.32;94049.97;5038315;28;20025;-79
2022/09/22 03:47:47;;;;;;;3.30;3.00;;;;;;;9.35;52.85;94013.84;5035661;28;20032;-78
2022/09/22 03:50:13;;;;;;;3.40;2.78;;;;;;;9.41;53.41;94039.19;5036920;28;20041;-77
2022/09/22 03:52:40;;;;;;;3.53;3.10;;;;;;;9.48;53.79;94049.41;5037665;28;20029;-77
2022/09/22 03:55:06;;;;;;;4.68;3.72;;;;;;;9.54;53.34;94039.44;5037841;28;20071;-77
2022/09/22 03:57:32;;;;;;;4.40;3.60;;;;;;;9.37;53.04;94011.69;5068109;28;20017;-78
2022/09/22 03:59:57;;;;;;;3.70;3.10;;;;;;;9.65;52.94;94059.34;5037613;28;20551;-76
2022/09/22 04:02:23;;;;;;;5.82;4.22;;;;;;;8.93;54.42;94017.66;5039063;28;20028;-76
2022/09/22 04:04:48;;;;;;;4.28;3.60;;;;;;;9.24;54.24;94054.94;5040705;28;20374;-76
2022/09/22 04:07:13;;;;;;;3.60;3.20;;;;;;;8.94;54.49;94024.53;5040938;28;20108;-79
2022/09/22 04:09:40;;;;;;;4.97;3.83;;;;;;;8.97;54.53;94025.78;5039239;28;20024;-79
2022/09/22 04:12:07;;;;;;;4.18;3.40;;;;;;;9.00;54.89;94033.13;5044613;28;20032;-77
2022/09/22 04:14:32;;;;;;;4.35;3.67;;;;;;;8.97;54.91;94044.34;5067457;28;20032;-79
2022/09/22 04:16:58;;;;;;;4.07;3.53;;;;;;;8.71;55.31;94024.72;5038416;28;20021;-76
2022/09/22 04:19:23;;;;;;;4.65;3.50;;;;;;;9.02;55.45;94046.91;5035853;28;20029;-79
2022/09/22 04:21:48;;;;;;;4.53;3.88;;;;;;;8.96;54.82;94032.97;5036374;28;20187;-78
2022/09/22 04:24:14;;;;;;;4.68;4.03;;;;;;;9.17;55.12;94053.78;5036957;28;20389;-77
2022/09/22 04:26:39;;;;;;;4.45;3.72;;;;;;;9.29;54.73;94046.88;5037224;28;20120;-77
2022/09/22 04:29:05;;;;;;;4.30;3.50;;;;;;;8.96;54.62;94017.03;5038259;28;20392;-78
2022/09/22 04:31:30;;;;;;;3.88;3.58;;;;;;;9.21;54.90;94063.50;5038079;28;20382;-78
2022/09/22 04:33:56;;;;;;;4.65;3.97;;;;;;;9.05;55.52;94058.81;5038472;28;20036;-76
2022/09/22 04:36:21;;;;;;;5.15;4.05;;;;;;;8.79;55.53;94053.22;5039064;28;20335;-77
2022/09/22 04:38:46;;;;;;;3.83;3.40;;;;;;;8.74;55.65;94026.81;5039580;28;20524;-76
2022/09/22 04:41:12;;;;;;;5.03;3.95;;;;;;;8.94;55.70;94060.88;5038981;28;20021;-76
2022/09/22 04:43:38;;;;;;;6.03;4.32;;;;;;;8.64;56.13;94051.66;5036526;28;20024;-77
2022/09/22 04:46:03;;;;;;;4.28;3.38;;;;;;;8.23;56.80;94009.22;5037251;28;20052;-78
2022/09/22 04:48:29;;;;;;;4.53;3.50;;;;;;;8.62;56.93;94063.63;5038742;28;20032;-78
2022/09/22 04:50:54;;;;;;;3.95;3.60;;;;;;;8.57;56.70;94044.06;5038545;28;20109;-77
2022/09/22 04:53:19;;;;;;;4.32;3.75;;;;;;;8.73;56.25;94043.78;5037694;28;20047;-76
2022/09/22 04:55:45;;;;;;;5.65;4.18;;;;;;;8.91;56.33;94064.09;5038542;28;20024;-76
2022/09/22 04:58:10;;;;;;;5.00;4.20;;;;;;;8.66;56.28;94027.50;5068922;28;20417;-76
2022/09/22 05:00:36;;;;;;;5.03;4.30;;;;;;;9.07;55.80;94060.06;5037334;28;20108;-76
2022/09/22 05:03:07;;;;;;;4.32;3.92;;;;;;;8.84;55.74;94013.34;5034806;28;20039;-78
2022/09/22 05:05:33;;;;;;;3.95;3.55;;;;;;;9.33;55.23;94053.19;5051717;28;20044;-79
2022/09/22 05:07:59;;;;;;;4.30;3.90;;;;;;;9.39;55.05;94061.78;5034301;28;20163;-78
2022/09/22 05:10:25;;;;;;;4.07;3.65;;;;;;;9.45;54.56;94056.06;5034327;28;20628;-79
2022/09/22 05:12:52;;;;;;;4.75;4.18;;;;;;;9.25;54.45;94024.66;5035868;28;20033;-79
2022/09/22 05:15:18;;;;;;;5.85;4.63;;;;;;;9.17;54.64;94046.63;5038488;28;20073;-77
2022/09/22 05:17:45;;;;;;;5.93;4.75;;;;;;;9.30;55.20;94051.09;5037791;28;20456;-78
2022/09/22 05:20:11;;;;;;;5.57;4.35;;;;;;;9.08;55.37;94027.16;5036432;28;20016;-78
2022/09/22 05:22:40;;;;;;;5.60;4.38;;;;;;;9.11;55.55;94068.22;5037472;28;20051;-76
2022/09/22 05:25:09;;;;;;;5.20;3.97;;;;;;;8.90;56.41;94038.69;5034745;28;20140;-77
2022/09/22 05:27:34;;;;;;;6.07;4.53;;;;;;;9.12;56.11;94046.72;5036053;28;20025;-77
2022/09/22 05:30:00;;;;;;;5.55;4.25;;;;;;;9.20;55.68;94047.88;5036004;28;20033;-78
2022/09/22 05:32:25;;;;;;;6.78;3.85;;;;;;;9.31;55.74;94075.78;5038713;28;20661;-78
2022/09/22 05:34:50;;;;;;;5.45;4.55;;;;;;;9.17;56.02;94053.78;5037721;28;20028;-78
2022/09/22 05:37:16;;;;;;;6.47;5.00;;;;;;;8.83;55.60;93990.53;5035643;28;20025;-79
2022/09/22 05:39:41;;;;;;;5.28;4.75;;;;;;;9.23;55.86;94061.34;5066754;28;20119;-79
2022/09/22 05:42:07;;;;;;;4.78;4.10;;;;;;;9.44;55.90;94051.84;5044360;28;20032;-78
2022/09/22 05:44:32;;;;;;;6.20;4.78;;;;;;;9.65;55.13;94062.00;5038349;28;20685;-77
2022/09/22 05:46:58;;;;;;;5.35;3.60;;;;;;;9.68;54.57;94051.56;5035662;28;20495;-77
2022/09/22 05:49:23;;;;;;;3.80;3.28;;;;;;;9.93;53.41;94055.50;5037622;28;20028;-79
2022/09/22 05:51:51;;;;;;;4.43;3.72;;;;;;;9.85;52.79;94069.50;5035058;28;20512;-77
2022/09/22 05:54:16;;;;;;;3.60;3.25;;;;;;;9.57;53.28;94046.81;5035346;28;20078;-79
2022/09/22 05:56:41;;;;;;;4.65;3.08;;;;;;;9.92;53.06;94069.88;5034270;28;20024;-77
2022/09/22 05:59:07;;;;;;;5.40;3.55;;;;;;;9.75;52.80;94048.50;5036982;28;20029;-77
2022/09/22 06:01:32;;;;;;;4.32;3.33;;;;;;;9.91;53.14;94068.31;5036848;28;20029;-77
2022/09/22 06:03:58;;;;;;;4.45;3.33;;;;;;;9.94;52.56;94066.91;5039365;28;20029;-79
2022/09/22 06:06:23;;;;;;;5.70;3.58;;;;;;;9.81;52.65;94034.81;5036543;28;20034;-78
2022/09/22 06:08:49;;;;;;;3.63;3.28;;;;;;;10.01;52.71;94051.34;5035778;28;20753;-78
2022/09/22 06:11:15;;;;;;;3.95;3.08;;;;;;;9.96;52.15;94033.66;5035864;28;20589;-78
2022/09/22 06:13:40;;;;;;;3.58;3.15;;;;;;;9.95;52.11;94079.13;5033563;28;20630;-77
2022/09/22 06:16:06;;;;;;;4.05;3.25;;;;;;;9.82;53.12;94075.44;5030715;28;20025;-77
2022/09/22 06:18:31;;;;;;;6.07;3.75;;;;;;;9.63;53.62;94058.91;5034496;28;20017;-79
2022/09/22 06:20:57;;;;;;;4.90;3.95;;;;;;;9.40;54.13;94056.19;5034984;28;20060;-78
2022/09/22 06:23:24;;;;;;;4.45;3.50;;;;;;;9.51;54.54;94053.31;5036616;28;20480;-79
2022/09/22 06:25:56;;;;;;;3.72;3.33;;;;;;;9.54;54.05;94052.69;5032486;28;20024;-78
2022/09/22 06:28:22;;;;;;;4.28;3.88;;;;;;;9.63;53.83;94075.63;5033996;28;20051;-78
2022/09/22 06:30:48;;;;;;;4.65;3.40;;;;;;;9.68;53.72;94086.09;5035476;28;20385;-78
2022/09/22 06:33:13;;;;;;;5.88;4.45;;;;;;;9.66;54.21;94076.88;5035313;28;20127;-77
2022/09/22 06:35:44;;;;;;;4.32;3.00;;;;;;;9.73;54.17;94045.38;5065391;28;20089;-77
2022/09/22 06:38:13;;;;;;;3.67;3.10;;;;;;;9.69;53.96;94055.00;5036127;28;20013;-77
2022/09/22 06:40:40;;;;;;;3.67;3.00;;;;;;;9.85;53.44;94072.97;5065109;28;20039;-77
2022/09/22 06:43:10;;;;;;;4.35;2.78;;;;;;;9.65;52.90;94043.41;5034616;28;20044;-79
2022/09/22 06:45:36;;;;;;;5.03;3.30;;;;;;;9.65;53.23;94083.25;5035234;28;20029;-79
2022/09/22 06:48:01;;;;;;;4.70;3.00;;;;;;;9.68;53.56;94054.22;5033798;28;20040;-79
2022/09/22 06:50:30;;;;;;;6.22;2.90;;;;;;;9.54;52.60;93996.94;5033908;28;20125;-79
2022/09/22 06:52:58;;;;;;;3.97;3.00;;;;;;;9.96;52.63;94054.91;5033161;28;20029;-77
2022/09/22 06:55:24;;;;;;;4.30;3.08;;;;;;;10.05;52.70;94039.81;5042898;28;20047;-78
2022/09/22 06:57:51;;;;;;;4.22;3.65;;;;;;;10.25;52.52;94067.75;5036009;28;20017;-78
2022/09/22 07:00:16;;;;;;;3.90;3.05;;;;;;;10.17;52.24;94057.84;5035775;28;20017;-79
2022/09/22 07:02:42;;;;;;;6.07;3.97;;;;;;;10.00;53.43;94029.28;5038734;28;20029;-77
2022/09/22 07:05:07;;;;;;;5.00;4.05;;;;;;;10.24;53.16;94066.97;5034991;28;20036;-78
2022/09/22 07:07:33;;;;;;;4.72;4.20;;;;;;;10.00;54.22;94028.50;5036209;28;20040;-77
2022/09/22 07:09:58;;;;;;;4.78;3.75;;;;;;;10.13;54.09;94084.25;5035584;28;20034;-78
2022/09/22 07:12:25;;;;;;;10.30;3.90;;;;;;;9.96;54.36;94056.78;5039221;28;20739;-78
2022/09/22 07:14:52;;;;;;;4.28;3.28;;;;;;;10.05;53.83;94066.38;5039395;28;20021;-78
2022/09/22 07:17:20;;;;;;;14.90;3.35;;;;;;;10.33;53.04;94075.75;5039050;28;20024;-78
2022/09/22 07:19:46;;;;;;;4.57;3.88;;;;;;;9.73;52.90;94008.19;5035879;28;21095;-79
2022/09/22 07:22:17;;;;;;;5.18;3.83;;;;;;;10.02;53.53;94074.97;5035236;28;20041;-79
2022/09/22 07:24:44;;;;;;;4.13;3.80;;;;;;;9.97;52.97;94047.72;5036914;28;20194;-78
2022/09/22 07:27:11;;;;;;;6.65;3.95;;;;;;;10.07;53.79;94032.31;5036521;28;20028;-78
2022/09/22 07:29:37;;;;;;;6.20;3.95;;;;;;;10.35;53.54;94074.69;5085273;28;20035;-80
2022/09/22 07:32:03;;;;;;;4.75;3.63;;;;;;;10.37;53.36;94064.56;5054488;28;20033;-78
2022/09/22 07:34:28;;;;;;;4.68;3.80;;;;;;;10.23;53.32;94060.06;5054981;28;20053;-79
2022/09/22 07:36:54;;;;;;;6.32;3.67;;;;;;;10.25;53.45;94062.44;5052787;28;20032;-79
2022/09/22 07:39:19;;;;;;;6.38;3.55;;;;;;;10.23;53.14;94028.16;5055731;28;20033;-79
2022/09/22 07:41:46;;;;;;;5.82;4.07;;;;;;;10.29;52.76;94023.50;5051155;28;20025;-79
2022/09/22 07:46:58;;;;;;;5.90;4.13;;;;;;;11.00;52.48;94083.59;5049001;28;20048;-80
2022/09/22 07:49:24;;;;;;;4.88;3.65;;;;;;;10.98;52.04;94080.47;5053580;28;20053;-79
2022/09/22 07:51:53;;;;;;;5.18;3.83;;;;;;;10.94;51.39;94076.84;5053188;28;20025;-79
2022/09/22 07:54:20;;;;;;;6.07;3.55;;;;;;;10.92;51.09;94076.38;5057346;28;20018;-80
2022/09/22 07:56:46;;;;;;;4.28;3.55;;;;;;;10.77;51.60;94074.13;5056192;28;20638;-78
2022/09/22 07:59:15;;;;;;;4.30;3.05;;;;;;;10.62;51.67;94056.69;5057736;28;20009;-79
2022/09/22 08:01:46;;;;;;;5.57;3.05;;;;;;;10.46;52.33;94060.88;5057843;28;20032;-80
2022/09/22 08:04:17;;;;;;;3.75;3.22;;;;;;;10.51;52.21;94022.72;5058139;28;20036;-79
2022/09/22 08:06:51;;;;;;;6.38;3.38;;;;;;;10.72;51.51;94076.91;5055124;28;20025;-79
2022/09/22 08:09:17;;;;;;;8.50;5.07;;;;;;;10.94;51.57;94082.19;5055404;28;20017;-79
2022/09/22 08:11:44;;;;;;;5.88;3.88;;;;;;;10.65;51.65;94050.00;5054501;28;20048;-79
2022/09/22 08:14:11;;;;;;;6.22;4.03;;;;;;;10.76;51.37;94063.81;5056148;28;20159;-79
2022/09/22 08:16:39;;;;;;;4.03;2.97;;;;;;;10.80;51.12;94057.56;5055444;28;20024;-78
2022/09/22 08:19:11;;;;;;;3.97;3.20;;;;;;;10.84;50.25;94079.78;5059245;28;20036;-78
2022/09/22 08:21:39;;;;;;;5.78;4.22;;;;;;;10.58;51.09;94049.63;5055047;28;20037;-80
2022/09/22 08:24:06;;;;;;;5.03;3.40;;;;;;;10.62;51.85;94039.94;5086119;28;20055;-79
2022/09/22 08:26:32;;;;;;;5.00;3.25;;;;;;;11.09;51.49;94072.97;5054202;28;20603;-79
2022/09/22 08:28:58;;;;;;;3.65;2.85;;;;;;;10.95;51.11;94069.66;5055590;28;20067;-80
2022/09/22 08:31:26;;;;;;;3.80;2.75;;;;;;;11.00;50.18;94080.91;5054731;28;20029;-79
2022/09/22 08:33:53;;;;;;;3.08;2.47;;;;;;;10.78;50.00;94042.97;5052675;28;20031;-79
2022/09/22 08:36:19;;;;;;;2.47;2.28;;;;;;;10.96;49.50;94040.06;5055858;28;20033;-79
2022/09/22 08:38:48;;;;;;;3.30;2.60;;;;;;;11.03;49.01;94035.06;5052527;28;20022;-80
2022/09/22 08:41:36;;;;;;;3.50;2.53;;;;;;;11.36;48.78;94067.38;5051180;28;20033;-80
2022/09/22 08:44:11;;;;;;;3.63;3.00;;;;;;;11.40;49.08;94064.88;5051925;28;20076;-79
2022/09/22 08:46:38;;;;;;;4.05;3.10;;;;;;;11.34;49.42;94048.28;5047570;28;20159;-79
2022/09/22 08:52:51;;;;;;;5.45;3.63;;;;;;;11.55;48.33;94062.59;5054510;28;20075;-79
2022/09/22 08:55:20;;;;;;;3.72;2.45;;;;;;;11.64;47.32;94062.56;5061300;28;20016;-79
2022/09/22 08:58:21;;;;;;;2.60;1.83;;;;;;;11.75;47.13;94061.19;5056721;28;20416;-79
2022/09/22 09:01:01;;;;;;;2.78;1.92;;;;;;;11.43;46.75;94021.66;5087377;28;20090;-78
2022/09/22 09:03:35;;;;;;;4.28;3.53;;;;;;;11.73;48.32;94057.28;5051255;28;20088;-79
2022/09/22 09:06:03;;;;;;;4.55;1.83;;;;;;;11.79;45.60;94056.78;5051271;28;20025;-79
2022/09/22 09:08:35;;;;;;;2.55;1.83;;;;;;;11.85;45.38;94044.88;5048097;28;20471;-80
2022/09/22 09:11:15;;;;;;;3.33;2.10;;;;;;;11.82;45.53;94012.75;5043842;28;20040;-80
2022/09/22 09:14:13;;;;;;;2.30;1.83;;;;;;;12.19;45.08;94053.91;5042588;28;20108;-80
2022/09/22 09:16:43;;;;;;;2.75;1.92;;;;;;;12.07;45.05;94025.25;5038552;28;20032;-81
2022/09/22 09:19:20;;;;;;;2.83;1.95;;;;;;;12.23;45.11;94044.19;5040828;28;20067;-78
2022/09/22 09:22:00;;;;;;;2.70;1.70;;;;;;;12.21;45.12;94027.75;5040371;28;20045;-79
2022/09/22 09:24:37;;;;;;;2.13;1.88;;;;;;;12.21;45.65;94051.72;5043474;28;20029;-80
2022/09/22 09:27:11;;;;;;;3.63;2.80;;;;;;;12.13;46.37;94045.31;5042575;28;20025;-82
2022/09/22 09:30:26;;;;;;;3.13;2.00;;;;;;;12.03;46.49;94024.31;5038623;28;20703;-81
2022/09/22 09:32:59;;;;;;;2.40;1.95;;;;;;;12.11;44.73;94036.06;5034309;28;20441;-80
2022/09/22 09:35:43;;;;;;;2.25;1.38;;;;;;;12.22;45.08;94048.75;5029569;28;20032;-80
2022/09/22 09:38:13;;;;;;;1.95;1.67;;;;;;;11.69;45.46;93981.72;5025228;28;20035;-79
2022/09/22 09:40:39;;;;;;;2.75;1.42;;;;;;;11.50;44.78;93942.84;5034478;28;20080;-79
2022/09/22 09:43:05;;;;;;;1.50;1.40;;;;;;;12.21;44.14;94033.84;5039261;28;20099;-79
2022/09/22 09:45:44;;;;;;;3.17;1.92;;;;;;;12.39;44.18;94021.25;5045764;28;20025;-81
2022/09/22 09:48:45;;;;;;;2.95;1.63;;;;;;;12.38;42.93;94009.78;5037917;28;20089;-79
2022/09/22 09:51:12;;;;;;;2.65;1.90;;;;;;;12.56;43.60;94037.22;5039826;28;20036;-79
2022/09/22 09:53:43;;;;;;;1.70;1.60;;;;;;;12.43;43.60;94035.50;5042154;28;20107;-79
2022/09/22 09:56:30;;;;;;;3.28;1.60;;;;;;;12.44;42.65;94023.75;5045763;28;20045;-80
2022/09/22 10:01:56;;;;;;;1.77;1.42;;;;;;;12.62;42.12;94014.59;5042970;28;20051;-78
2022/09/22 10:04:36;;;;;;;1.98;1.48;;;;;;;12.73;40.85;94007.00;5041616;28;20024;-78
2022/09/22 10:07:29;;;;;;;1.27;1.17;;;;;;;12.89;41.12;94030.19;5037851;28;20480;-81
2022/09/22 10:10:34;;;;;;;1.73;1.27;;;;;;;13.00;40.64;94019.13;5032551;28;20095;-81
2022/09/22 10:13:02;;;;;;;1.63;1.52;;;;;;;13.12;40.59;94017.31;5035732;28;20174;-80
2022/09/22 10:15:29;;;;;;;2.55;1.30;;;;;;;12.87;40.53;93964.88;5036058;28;20207;-79
2022/09/22 10:17:54;;;;;;;1.20;1.10;;;;;;;13.21;40.54;93994.00;5038682;28;20021;-79
2022/09/22 10:20:33;;;;;;;1.30;1.20;;;;;;;13.43;40.19;94000.16;5036357;28;20032;-79
2022/09/22 10:23:20;;;;;;;1.30;1.20;;;;;;;13.63;39.69;94016.22;5037182;28;20037;-80
2022/09/22 10:25:48;;;;;;;1.10;0.98;;;;;;;13.27;39.36;93981.25;5036272;28;20025;-80
2022/09/22 10:28:17;;;;;;;1.13;0.90;;;;;;;13.50;40.34;94005.75;5038674;28;20698;-80
2022/09/22 10:30:56;;;;;;;1.20;1.10;;;;;;;13.42;40.50;94007.38;5035961;28;20040;-82
2022/09/22 10:33:22;;;;;;;1.30;1.20;;;;;;;13.11;40.98;93966.91;5037757;28;20025;-79
2022/09/22 10:36:09;;;;;;;1.42;1.23;;;;;;;13.17;41.71;94001.13;5069310;28;20035;-79
2022/09/22 10:38:37;;;;;;;1.70;1.30;;;;;;;13.02;41.62;93963.50;5037565;28;20033;-80
2022/09/22 10:41:26;;;;;;;1.90;1.67;;;;;;;13.12;41.56;93981.81;5040006;28;20036;-80
2022/09/22 10:44:13;;;;;;;1.60;1.30;;;;;;;13.35;41.85;93999.09;5041489;28;20170;-79
2022/09/22 10:47:08;;;;;;;1.77;1.42;;;;;;;13.41;41.39;93999.69;5043503;28;20120;-80
2022/09/22 10:49:36;;;;;;;1.58;1.25;;;;;;;13.54;40.54;93996.78;5043021;28;20050;-80
2022/09/22 10:52:18;;;;;;;0.90;0.88;;;;;;;13.45;39.83;93996.03;5043664;28;20033;-80
2022/09/22 10:55:07;;;;;;;1.25;1.08;;;;;;;13.55;39.44;93984.19;5051011;28;20028;-80
2022/09/22 10:58:03;;;;;;;1.23;0.98;;;;;;;13.57;40.14;93984.63;5042964;28;20029;-79
2022/09/22 11:00:33;;;;;;;1.35;1.00;;;;;;;13.67;40.35;93982.38;5042102;28;20029;-80
2022/09/22 11:03:35;;;;;;;1.73;1.17;;;;;;;13.64;39.33;93985.69;5040251;28;20029;-81
2022/09/22 11:15:09;;;;;;;0.80;0.80;;;;;;;13.49;36.96;93962.25;5038766;28;20048;-80
2022/09/22 11:17:44;;;;;;;0.93;0.73;;;;;;;13.52;37.27;93974.16;5037047;28;20036;-80
2022/09/22 11:20:09;;;;;;;1.55;0.80;;;;;;;13.58;37.59;93975.53;5038535;28;20041;-79
2022/09/22 11:23:03;;;;;;;0.80;0.80;;;;;;;13.69;37.35;93971.38;5037574;28;20060;-82
2022/09/22 11:25:43;;;;;;;0.80;0.77;;;;;;;13.87;36.87;93964.75;5036400;28;20033;-81
2022/09/22 11:28:27;;;;;;;1.65;1.25;;;;;;;14.06;36.93;93958.91;5038502;28;20033;-79
2022/09/22 11:30:56;;;;;;;1.13;0.93;;;;;;;13.92;37.37;93929.00;5068804;28;20072;-78
2022/09/22 11:33:37;;;;;;;1.15;1.05;;;;;;;14.22;37.24;93957.16;5035403;28;20056;-79
2022/09/22 11:36:36;;;;;;;3.63;1.20;;;;;;;14.22;37.64;93946.44;5038284;28;20033;-78
2022/09/22 11:39:11;;;;;;;0.60;0.60;;;;;;;14.22;35.76;93956.38;5039036;28;20029;-79
2022/09/22 11:41:46;;;;;;;2.15;1.25;;;;;;;14.05;35.65;93919.88;5054518;28;20035;-79
2022/09/22 11:44:35;;;;;;;0.70;0.70;;;;;;;14.34;35.38;93946.47;5039074;28;20048;-78
2022/09/22 11:47:19;;;;;;;4.22;2.00;;;;;;;14.43;35.89;93947.13;5040393;28;20044;-79
2022/09/22 11:50:00;;;;;;;3.90;2.22;;;;;;;14.48;35.28;93948.81;5038697;28;20520;-81
2022/09/22 11:52:41;;;;;;;2.00;1.80;;;;;;;14.69;37.68;93944.16;5076189;28;20032;-79
2022/09/22 11:55:25;;;;;;;1.85;1.35;;;;;;;14.57;39.39;93952.19;5076698;28;20025;-79
2022/09/22 11:57:57;;;;;;;2.05;1.20;;;;;;;14.20;39.99;93927.28;5069799;28;20009;-78
2022/09/22 12:00:23;;;;;;;6.10;2.22;;;;;;;14.05;40.35;93930.59;5042461;28;20714;-78
2022/09/22 12:03:09;;;;;;;1.85;1.00;;;;;;;13.99;41.35;93945.28;5042563;28;20039;-79
2022/09/22 12:05:43;;;;;;;2.25;1.50;;;;;;;13.82;41.20;93967.63;5041070;28;20386;-79
2022/09/22 12:08:19;;;;;;;1.90;1.50;;;;;;;13.84;41.41;93951.28;5041798;28;20017;-79
2022/09/22 12:10:46;;;;;;;2.10;1.63;;;;;;;13.73;41.20;93932.97;5041565;28;20017;-80
2022/09/22 12:13:14;;;;;;;6.00;1.50;;;;;;;13.97;40.54;93960.88;5044291;28;20035;-79